Oscoda, MI (48750)

7:30 AM EDT on June 25, 2017 (GMT -0400)
Huron Shore - 1 mi north of Ausable Point | | Change Station

Elev 600 ft 44.36 °N, 83.34 °W | Updated 12 seconds ago

Overcast
Overcast
53.4 °F
Feels Like 53.4 °F
N
2.2
Wind Variable Wind from West

Today
High -- | Low -- °F
--% Chance of Precip.
Yesterday
High -- | Low -- °F
Precip. -- in
Pressure 29.90 in
Visibility 10.0 miles
Clouds Scattered Clouds 7500 ft
Overcast 9000 ft
Dew Point 53 °F
Humidity 98%
Rainfall 0.00 in
Snow Depth Not available.
5:50 AM 9:21 PM
Waxing Crescent, 3% visible
METAR KOSC 251113Z AUTO 27004KT 10SM SCT075 OVC090 13/12 A2990 RMK AO2 T01270117
Pressure 29.90 in
Visibility 10.0 miles
Clouds Scattered Clouds 7500 ft
Overcast 9000 ft
Dew Point 53 °F
Humidity 98%
Rainfall 0.00 in
Snow Depth Not available.
5:50 AM 9:21 PM
Waxing Crescent, 3% visible
METAR KOSC 251113Z AUTO 27004KT 10SM SCT075 OVC090 13/12 A2990 RMK AO2 T01270117

Get Severe Weather Alerts

Thanks for signing up!

Be on the lookout for a verification email in your inbox.

You'll start receiving the daily forecast at 6 AM.

×

10-Day Weather Forecast

Almanac

Astronomy

Jun. 25, 2017 Rise Set
Actual Time
Civil Twilight
Nautical Twilight
Astronomical Twilight
Moon
Length of Visible Light
Length of Day
Tomorrow will be .
, % of the Moon is Illuminated

Today's Extremes

State Highs State Lows

Community

WunderPhotos

Category 6

Welcome to Category 6. This is the collective home for Weather Underground's featured writeups by Dr. Jeff Masters (right), Bob Henson (left), Chris Burt, and other regular contributors.

Nearby

Air Quality

  Air Quality AQ Index Pollutant
Not available.

Snow Depth

Station Depth Elevation

Earthquake Activity

City Distance Mag. Time & Date
Minimum magnitude displayed is 2.5.

Coastal Water Temperatures

Place Temperature

Stations

Nearby Weather Stations

Station Location Temp. Windchill Dew Point Humidity Wind Precip. Elev Updated Type
                   

Watches & Warnings

There are currently no watches in effect.